Latest Weather Observations for Yunta

IDS60801

Issued at 10:02 am CDT Friday 19 December 2014 (issued every 30 minutes, with the page automatically refreshed every 10 minutes)

About weather observations | Map of weather stations | Latest weather observations for SA | Other Formats
Station Details ID: 020062 Name: YUNTA AIRSTRIP Lat: -32.57 Lon: 139.56 Height: 300.0 m
Data from the previous 72 hours. | See also: Recent months at Yunta
Date/Time
CDT
Temp
°C
App
Temp
°C
Dew
Point
Rel
Hum
%
Delta-T
°C
Wind Press
QNH
hPa
Press
MSL
hPa
Rain
since 9 am
mm
Dir
 
Spd
km/h
Gust
km/h
Spd
kts
Gust
kts
19/10:00am 18.2 13.8 4.7 41 6.5 SSE 17 28 9 15 1019.4 1018.1 0.0
19/09:30am 17.5 12.8 5.1 44 6.0 SSE 19 26 10 14 1019.6 1018.3 0.0
19/09:00am 16.2 11.5 5.2 48 5.3 SSE 19 28 10 15 1019.6 1018.3 0.0
19/08:30am 15.8 10.6 5.4 50 5.0 SE 22 30 12 16 1019.5 1018.2 0.0
19/08:00am 14.7 9.8 5.2 53 4.5 SSE 20 28 11 15 1019.2 1017.9 0.0
19/07:30am 14.2 9.5 5.0 54 4.4 SSE 19 26 10 14 1018.7 1017.5 0.0
19/07:00am 13.4 9.9 5.6 59 3.7 SE 13 19 7 10 1018.4 1017.1 0.0
19/06:30am 12.5 9.5 5.9 64 3.1 SSE 11 17 6 9 1018.0 1016.7 0.0
19/06:00am 12.1 8.7 5.9 66 2.9 SSE 13 19 7 10 1017.7 1016.4 0.0
19/05:30am 12.4 8.6 6.0 65 3.1 SSE 15 19 8 10 1017.2 1015.9 0.0
19/05:00am 12.9 8.4 6.3 64 3.2 SSE 19 26 10 14 1017.0 1015.7 0.0
19/04:30am 12.9 9.1 6.0 63 3.3 S 15 22 8 12 1016.8 1015.5 0.0
19/04:00am 13.3 9.6 6.2 62 3.4 S 15 20 8 11 1016.7 1015.4 0.0
19/03:30am 13.7 9.6 6.3 61 3.6 S 17 22 9 12 1016.7 1015.4 0.0
19/03:00am 14.3 9.8 6.9 61 3.7 S 20 28 11 15 1016.5 1015.2 0.0
19/02:30am 14.9 10.5 7.5 61 3.7 S 20 30 11 16 1016.4 1015.1 0.0
19/02:00am 15.8 11.5 7.1 56 4.4 S 19 26 10 14 1016.4 1015.1 0.0
19/01:30am 16.6 12.0 6.4 51 5.1 S 20 24 11 13 1016.3 1015.0 0.0
19/01:00am 17.2 12.7 6.1 48 5.5 SSW 19 26 10 14 1016.2 1014.9 0.0
19/12:30am 17.7 14.4 6.3 47 5.7 S 13 19 7 10 1016.2 1014.9 0.0
19/12:00am 18.4 14.2 5.9 44 6.2 S 17 24 9 13 1016.0 1014.7 0.0
 
Date/Time
CDT
Temp
°C
App
Temp
°C
Dew
Point
Rel
Hum
%
Delta-T
°C
Wind Press
QNH
hPa
Press
MSL
hPa
Rain
since 9 am
mm
Dir
 
Spd
km/h
Gust
km/h
Spd
kts
Gust
kts
18/11:30pm 18.9 14.1 5.7 42 6.6 S 20 28 11 15 1015.9 1014.6 0.0
18/11:00pm 19.7 14.2 5.7 40 7.0 S 24 32 13 17 1015.7 1014.3 0.0
18/10:30pm 20.3 15.8 4.4 35 7.8 S 17 24 9 13 1015.5 1014.1 0.0
18/10:00pm 21.1 15.6 3.8 32 8.4 SSW 22 32 12 17 1015.0 1013.7 0.0
18/09:30pm 21.7 16.7 3.4 30 8.9 SSW 19 24 10 13 1014.6 1013.3 0.0
18/09:00pm 22.3 17.0 2.9 28 9.4 SSW 20 32 11 17 1014.2 1012.9 0.0
18/08:30pm 23.1 17.1 3.1 27 9.8 SSW 24 33 13 18 1013.9 1012.6 0.0
18/08:00pm 24.1 18.1 3.4 26 10.2 SW 24 33 13 18 1013.5 1012.2 0.0
18/07:30pm 25.0 17.8 3.0 24 10.9 SSW 30 39 16 21 1012.9 1011.6 0.0
18/07:00pm 26.1 19.0 3.4 23 11.4 SSW 30 44 16 24 1012.5 1011.1 0.0
18/06:30pm 26.5 18.9 3.1 22 11.7 SW 32 43 17 23 1011.7 1010.4 0.0
18/06:00pm 27.0 19.4 2.8 21 12.1 SW 32 54 17 29 1011.6 1010.3 0.0
18/05:33pm 28.0 20.5 1.5 18 13.0 SW 30 50 16 27 1011.2 1009.9 0.0
18/05:30pm 27.9 21.1 2.9 20 12.6 SW 28 44 15 24 1011.3 1010.0 0.0
18/05:00pm 28.5 20.3 2.7 19 13.0 WSW 35 50 19 27 1010.9 1009.6 0.0
18/04:30pm 29.1 21.2 2.4 18 13.4 SW 33 50 18 27 1010.8 1009.5 0.0
18/04:26pm 29.1 21.4 2.4 18 13.4 SW 32 50 17 27 1010.8 1009.5 0.0
18/04:00pm 28.9 20.9 1.4 17 13.5 SW 33 48 18 26 1010.7 1009.4 0.0
18/03:33pm 29.2 20.7 0.8 16 13.9 SW 35 54 19 29 1010.4 1009.1 0.0
18/03:30pm 29.4 21.3 1.0 16 14.0 SW 33 48 18 26 1010.6 1009.3 0.0
18/03:00pm 29.2 20.2 -0.1 15 14.1 SW 37 52 20 28 1010.4 1009.1 0.0
18/02:36pm 29.5 21.9 2.7 18 13.6 SW 32 50 17 27 1010.2 1008.9 0.0
18/02:30pm 29.1 21.5 3.1 19 13.2 WSW 32 46 17 25 1010.5 1009.2 0.0
18/02:00pm 29.4 21.6 2.6 18 13.5 WSW 33 52 18 28 1010.4 1009.1 0.0
18/01:55pm 28.8 21.1 3.6 20 12.9 WSW 33 52 18 28 1010.5 1009.2 0.0
18/01:30pm 28.6 20.8 2.7 19 13.0 WSW 33 46 18 25 1010.5 1009.2 0.0
18/01:19pm 28.9 21.3 3.0 19 13.1 SW 32 54 17 29 1010.4 1009.1 0.0
18/01:00pm 28.5 22.3 1.9 18 13.2 WSW 24 39 13 21 1010.7 1009.4 0.0
18/12:30pm 28.5 21.5 1.9 18 13.2 WSW 28 43 15 23 1010.9 1009.6 0.0
18/12:00pm 27.3 22.1 2.4 20 12.4 SSW 19 32 10 17 1010.8 1009.5 0.0
18/11:30am 25.0 20.8 1.8 22 11.2 SW 13 20 7 11 1011.2 1009.9 0.0
18/11:00am 25.4 21.3 2.2 22 11.3 WSW 13 24 7 13 1011.3 1010.0 0.0
18/10:30am 23.4 20.6 2.3 25 10.2 SSW 6 17 3 9 1011.2 1009.9 0.0
18/10:00am 22.7 20.0 2.8 27 9.6 S 6 15 3 8 1011.1 1009.8 0.0
18/09:30am 21.2 18.4 3.0 30 8.8 ESE 7 13 4 7 1010.7 1009.4 0.0
18/09:00am 20.7 17.8 2.5 30 8.6 SE 7 11 4 6 1010.8 1009.5 0.0
18/08:30am 19.8 16.9 2.6 32 8.1 SSE 7 9 4 5 1010.8 1009.5 0.0
18/08:00am 19.0 16.1 2.4 33 7.8 S 7 11 4 6 1010.6 1009.3 0.0
18/07:30am 17.5 14.5 2.3 36 7.0 SSW 7 9 4 5 1010.3 1009.0 0.0
18/07:00am 14.9 12.3 1.1 39 6.1 SW 4 6 2 3 1010.1 1008.8 0.0
18/06:30am 12.2 9.0 -0.6 41 5.3 SSW 6 6 3 3 1009.5 1008.1 0.0
18/06:00am 11.6 9.2 -0.2 44 4.9 W 2 4 1 2 1008.9 1007.5 0.0
18/05:30am 11.8 9.9 0.3 45 4.8 CALM 0 2 0 1 1008.6 1007.2 0.0
18/05:00am 12.8 9.8 0.9 44 5.1 WSW 6 6 3 3 1008.5 1007.1 0.0
18/04:30am 13.4 10.3 1.1 43 5.3 WSW 7 9 4 5 1008.3 1007.0 0.0
18/04:00am 13.6 10.0 0.3 40 5.7 WSW 9 11 5 6 1008.0 1006.7 0.0
18/03:30am 14.2 11.2 0.5 39 5.9 SW 6 7 3 4 1007.6 1006.3 0.0
18/03:00am 15.1 11.5 0.5 37 6.4 SW 9 13 5 7 1007.6 1006.3 0.0
18/02:30am 15.6 12.8 -0.2 34 6.8 E 4 7 2 4 1007.6 1006.3 0.0
18/02:00am 17.8 14.9 1.3 33 7.5 ENE 6 9 3 5 1007.5 1006.2 0.0
18/01:30am 19.1 16.0 1.6 31 8.1 SE 7 11 4 6 1007.7 1006.4 0.0
18/01:00am 19.7 16.3 1.7 30 8.3 S 9 13 5 7 1007.7 1006.4 0.0
18/12:30am 20.5 16.3 1.4 28 8.9 S 13 17 7 9 1007.9 1006.6 0.0
18/12:00am 21.2 16.4 0.4 25 9.5 SSW 15 17 8 9 1008.0 1006.7 0.0
 
Date/Time
CDT
Temp
°C
App
Temp
°C
Dew
Point
Rel
Hum
%
Delta-T
°C
Wind Press
QNH
hPa
Press
MSL
hPa
Rain
since 9 am
mm
Dir
 
Spd
km/h
Gust
km/h
Spd
kts
Gust
kts
17/11:30pm 21.9 17.4 -0.1 23 10.0 SSW 13 15 7 8 1008.1 1006.8 0.0
17/11:00pm 23.1 18.6 -0.4 21 10.7 SSW 13 26 7 14 1008.1 1006.8 0.0
17/10:30pm 23.8 19.4 0.2 21 11.0 SSE 13 19 7 10 1007.5 1006.2 0.0
17/10:00pm 24.4 19.2 0.0 20 11.3 SSE 17 30 9 16 1007.0 1005.7 0.0
17/09:30pm 24.7 19.0 -0.4 19 11.6 S 19 26 10 14 1006.6 1005.2 0.0
17/09:00pm 25.7 20.4 -0.4 18 12.2 S 17 24 9 13 1006.0 1004.6 0.0
17/08:30pm 25.2 21.9 -4.2 14 12.8 NW 4 7 2 4 1005.8 1004.4 0.0
17/08:00pm 27.8 25.1 -2.1 14 13.7 NNW 2 6 1 3 1005.2 1003.8 0.0
17/07:30pm 29.0 26.3 -2.2 13 14.5 SSW 2 6 1 3 1005.0 1003.6 0.0
17/07:00pm 29.2 25.6 -2.0 13 14.5 SW 7 13 4 7 1005.1 1003.7 0.0
17/06:30pm 29.2 26.2 -2.0 13 14.6 SSW 4 9 2 5 1005.3 1003.9 0.0
17/06:00pm 29.0 25.4 -2.2 13 14.5 W 7 17 4 9 1005.1 1003.7 0.0
17/05:30pm 28.8 24.4 -2.3 13 14.4 W 11 19 6 10 1005.2 1003.8 0.0
17/05:00pm 28.6 25.1 -1.5 14 14.1 WSW 7 13 4 7 1005.8 1004.4 0.0
17/04:30pm 28.1 23.9 -0.9 15 13.7 W 11 19 6 10 1006.2 1004.8 0.0
17/04:00pm 27.4 23.7 0.2 17 13.0 W 9 20 5 11 1006.5 1005.1 0.0
17/03:30pm 26.7 22.6 -0.3 17 12.7 WSW 11 22 6 12 1006.9 1005.5 0.0
17/03:00pm 26.4 23.3 0.2 18 12.4 S 6 13 3 7 1007.3 1006.0 0.0
17/02:30pm 25.1 22.0 1.3 21 11.4 WSW 7 19 4 10 1007.9 1006.6 0.0
17/02:00pm 24.1 21.1 1.1 22 10.9 W 6 13 3 7 1008.3 1007.0 0.0
17/01:30pm 23.9 21.1 2.1 24 10.5 S 6 13 3 7 1008.9 1007.5 0.0
17/01:00pm 22.6 20.2 2.1 26 9.8 WSW 4 11 2 6 1009.2 1007.8 0.0
17/12:30pm 21.9 19.2 2.6 28 9.3 SSE 6 13 3 7 1009.5 1008.1 0.0
17/12:00pm 20.4 17.6 3.2 32 8.3 SE 7 13 4 7 1009.9 1008.6 0.0
17/11:30am 19.8 17.1 3.5 34 7.8 ESE 7 15 4 8 1010.2 1008.9 0.0
17/11:00am 18.9 15.9 3.9 37 7.2 SE 9 22 5 12 1010.5 1009.2 0.0
17/10:30am 18.8 15.9 4.6 39 6.9 S 9 20 5 11 1010.7 1009.4 0.0
17/10:00am 17.9 14.3 5.2 43 6.2 S 13 20 7 11 1010.8 1009.5 0.0
17/09:30am 16.9 13.7 4.9 45 5.8 SE 11 17 6 9 1010.9 1009.6 0.0
17/09:00am 16.2 12.6 4.9 47 5.4 SE 13 19 7 10 1011.2 1009.9 0.0
17/08:30am 15.4 11.0 5.0 50 5.0 ESE 17 24 9 13 1010.9 1009.6 0.0
17/08:00am 15.0 10.4 5.5 53 4.6 SE 19 30 10 16 1010.6 1009.3 0.0
17/07:30am 14.3 10.4 5.4 55 4.3 SSE 15 20 8 11 1010.5 1009.2 0.0
17/07:00am 13.4 9.9 5.3 58 3.8 SSE 13 17 7 9 1010.4 1009.1 0.0
17/06:30am 12.4 8.9 5.3 62 3.4 SSE 13 19 7 10 1009.9 1008.6 0.0
17/06:00am 11.7 8.5 5.1 64 3.1 SSE 11 15 6 8 1009.8 1008.4 0.0
17/05:30am 12.0 8.4 5.0 62 3.3 SSE 13 15 7 8 1009.6 1008.2 0.0
17/05:00am 12.2 9.0 4.9 61 3.4 SSE 11 15 6 8 1009.4 1008.0 0.0
17/04:30am 12.5 9.2 4.5 58 3.7 SSE 11 15 6 8 1009.2 1007.8 0.0
17/04:00am 13.2 9.2 4.9 57 3.9 SSE 15 19 8 10 1008.7 1007.3 0.0
17/03:30am 12.7 10.3 5.4 61 3.5 S 7 11 4 6 1008.6 1007.2 0.0
17/03:00am 13.5 10.4 5.4 58 3.9 S 11 15 6 8 1008.6 1007.2 0.0
17/02:30am 14.1 9.8 5.2 55 4.3 S 17 22 9 12 1008.3 1007.0 0.0
17/02:00am 14.7 10.2 4.4 50 4.8 S 17 22 9 12 1008.3 1007.0 0.0
17/01:30am 15.1 10.3 4.8 50 4.9 S 19 30 10 16 1008.2 1006.9 0.0
17/01:00am 15.7 10.4 5.0 49 5.1 S 22 33 12 18 1008.1 1006.8 0.0
17/12:30am 16.2 10.9 5.2 48 5.3 S 22 32 12 17 1008.3 1007.0 0.0
17/12:00am 16.6 11.7 4.3 44 5.9 SSW 19 28 10 15 1008.3 1007.0 0.0
 
Date/Time
CDT
Temp
°C
App
Temp
°C
Dew
Point
Rel
Hum
%
Delta-T
°C
Wind Press
QNH
hPa
Press
MSL
hPa
Rain
since 9 am
mm
Dir
 
Spd
km/h
Gust
km/h
Spd
kts
Gust
kts
16/11:30pm 17.2 11.5 4.9 44 6.0 SSW 24 33 13 18 1008.5 1007.1 0.0
16/11:00pm 17.9 11.6 5.5 44 6.1 S 28 37 15 20 1008.2 1006.9 0.0
16/10:30pm 18.7 12.7 5.2 41 6.7 SSW 26 35 14 19 1008.1 1006.8 0.0
16/10:00pm 19.8 13.2 4.3 36 7.6 SSW 28 37 15 20 1007.8 1006.5 0.0
16/09:30pm 21.0 15.3 5.0 35 8.0 SSW 24 33 13 18 1007.3 1006.0 0.0
16/09:00pm 21.9 15.9 5.3 34 8.4 SSW 26 37 14 20 1006.8 1005.4 0.0
16/08:30pm 22.7 16.1 6.0 34 8.6 SSW 30 43 16 23 1006.1 1004.7 0.0
16/08:00pm 24.3 17.3 7.0 33 9.1 SSW 33 44 18 24 1005.4 1004.0 0.0
16/07:30pm 26.1 19.4 8.1 32 9.8 SSW 33 44 18 24 1004.6 1003.3 0.0
16/07:00pm 28.0 21.2 7.8 28 11.0 SW 33 48 18 26 1004.1 1002.8 0.0
16/06:30pm 29.4 22.9 6.7 24 12.3 SW 30 41 16 22 1003.3 1001.9 0.0
16/06:02pm 30.4 23.3 5.6 21 13.2 SW 32 52 17 28 1002.9 1001.5 0.0
16/06:00pm 30.7 23.5 5.9 21 13.4 SW 33 52 18 28 1002.9 1001.5 0.0
16/05:30pm 32.0 24.0 3.9 17 14.8 WSW 35 46 19 25 1002.4 1001.0 0.0
16/05:04pm 32.7 24.9 2.7 15 15.5 WSW 33 52 18 28 1002.0 1000.6 0.0
16/05:00pm 33.5 25.6 4.2 16 15.6 WSW 35 52 19 28 1002.0 1000.6 0.0
16/04:59pm 33.5 25.6 4.2 16 15.6 WSW 35 52 19 28 1002.0 1000.6 0.0
16/04:30pm 33.9 25.1 3.7 15 16.0 W 39 57 21 31 1001.7 1000.3 0.0
16/04:05pm 34.1 25.2 2.8 14 16.3 W 39 61 21 33 1001.3 1000.0 0.0
16/04:00pm 34.0 25.1 2.8 14 16.2 W 39 54 21 29 1001.5 1000.1 0.0
16/03:30pm 34.8 27.7 3.4 14 16.7 W 30 48 16 26 1001.5 1000.1 0.0
16/03:00pm 34.4 26.2 5.0 16 16.0 W 37 63 20 34 1001.6 1000.2 0.0
16/02:30pm 34.9 27.2 3.5 14 16.7 WNW 33 57 18 31 1001.7 1000.3 0.0
16/02:14pm 34.7 25.1 3.3 14 16.5 W 43 61 23 33 1001.8 1000.4 0.0
16/02:06pm 34.5 25.6 3.1 14 16.5 WNW 39 61 21 33 1001.7 1000.3 0.0
16/02:01pm 34.9 26.5 1.3 12 17.2 WNW 35 54 19 29 1001.9 1000.5 0.0
16/02:00pm 34.5 26.0 1.0 12 17.0 WNW 35 54 19 29 1002.0 1000.6 0.0
16/01:41pm 34.4 25.9 0.9 12 16.9 W 35 56 19 30 1002.1 1000.7 0.0
16/01:30pm 34.7 25.7 -0.1 11 17.4 W 37 50 20 27 1002.4 1001.0 0.0
16/01:00pm 32.8 23.2 -1.5 11 16.5 WNW 39 59 21 32 1002.8 1001.4 0.0
16/12:30pm 35.0 27.0 0.2 11 17.5 W 32 52 17 28 1002.7 1001.3 0.0
16/12:11pm 33.8 25.4 -0.7 11 16.9 W 33 54 18 29 1002.6 1001.2 0.0
16/12:00pm 34.3 25.8 -1.7 10 17.5 W 33 48 18 26 1002.6 1001.2 0.0
16/11:34am 33.9 24.8 -3.4 9 17.5 W 35 59 19 32 1002.8 1001.4 0.0
16/11:30am 33.3 24.6 -3.8 9 17.3 W 33 44 18 24 1002.8 1001.4 0.0
16/11:00am 32.0 23.9 -3.4 10 16.4 WNW 30 43 16 23 1003.3 1001.9 0.0
16/10:30am 31.5 22.4 -3.8 10 16.3 WNW 35 50 19 27 1003.5 1002.1 0.0

Other Formats:

Comma delimited format used in spreadsheet applications
http://www.bom.gov.au/fwo/IDS60801/IDS60801.94684.axf

JavaScript Object Notation format (JSON) in row-major order
http://www.bom.gov.au/fwo/IDS60801/IDS60801.94684.json